sensor_id;sensor_type;location;lat;lon;timestamp;temperature;humidity
5689;DHT22;2869;50.432;8.680;2022-10-16T00:02:12;13.20;99.90
5689;DHT22;2869;50.432;8.680;2022-10-16T00:04:39;13.20;99.90
5689;DHT22;2869;50.432;8.680;2022-10-16T00:07:06;13.20;99.90
5689;DHT22;2869;50.432;8.680;2022-10-16T00:09:32;13.10;99.90
5689;DHT22;2869;50.432;8.680;2022-10-16T00:11:59;13.10;99.90
5689;DHT22;2869;50.432;8.680;2022-10-16T00:14:27;13.10;99.90
5689;DHT22;2869;50.432;8.680;2022-10-16T00:16:54;13.10;99.90
5689;DHT22;2869;50.432;8.680;2022-10-16T00:19:20;13.10;99.90
5689;DHT22;2869;50.432;8.680;2022-10-16T00:21:47;13.10;99.90
5689;DHT22;2869;50.432;8.680;2022-10-16T00:24:14;13.10;99.90
5689;DHT22;2869;50.432;8.680;2022-10-16T00:26:40;13.10;99.90
5689;DHT22;2869;50.432;8.680;2022-10-16T00:29:07;13.10;99.90
5689;DHT22;2869;50.432;8.680;2022-10-16T00:31:36;13.10;99.90
5689;DHT22;2869;50.432;8.680;2022-10-16T00:34:03;13.10;99.90
5689;DHT22;2869;50.432;8.680;2022-10-16T00:36:30;13.10;99.90
5689;DHT22;2869;50.432;8.680;2022-10-16T00:38:57;13.10;99.90
5689;DHT22;2869;50.432;8.680;2022-10-16T00:41:26;13.10;99.90
5689;DHT22;2869;50.432;8.680;2022-10-16T00:43:54;13.10;99.90
5689;DHT22;2869;50.432;8.680;2022-10-16T00:46:23;13.20;99.90
5689;DHT22;2869;50.432;8.680;2022-10-16T00:48:54;13.20;99.90
5689;DHT22;2869;50.432;8.680;2022-10-16T00:51:25;13.30;99.90
5689;DHT22;2869;50.432;8.680;2022-10-16T00:53:55;13.30;99.90
5689;DHT22;2869;50.432;8.680;2022-10-16T00:56:22;13.30;99.90
5689;DHT22;2869;50.432;8.680;2022-10-16T00:58:49;13.30;99.90
5689;DHT22;2869;50.432;8.680;2022-10-16T01:01:16;13.30;99.90
5689;DHT22;2869;50.432;8.680;2022-10-16T01:03:42;13.30;99.90
5689;DHT22;2869;50.432;8.680;2022-10-16T01:06:21;13.30;99.90
5689;DHT22;2869;50.432;8.680;2022-10-16T01:09:02;13.30;99.90
5689;DHT22;2869;50.432;8.680;2022-10-16T01:11:35;13.40;99.90
5689;DHT22;2869;50.432;8.680;2022-10-16T01:14:11;13.30;99.90
5689;DHT22;2869;50.432;8.680;2022-10-16T01:16:45;13.40;99.90
5689;DHT22;2869;50.432;8.680;2022-10-16T01:19:19;13.40;99.90
5689;DHT22;2869;50.432;8.680;2022-10-16T01:21:49;13.30;99.90
5689;DHT22;2869;50.432;8.680;2022-10-16T01:24:23;13.40;99.90
5689;DHT22;2869;50.432;8.680;2022-10-16T01:27:10;13.40;99.90
5689;DHT22;2869;50.432;8.680;2022-10-16T01:29:42;13.30;99.90
5689;DHT22;2869;50.432;8.680;2022-10-16T01:32:27;13.30;99.90
5689;DHT22;2869;50.432;8.680;2022-10-16T01:34:59;13.20;99.90
5689;DHT22;2869;50.432;8.680;2022-10-16T01:37:33;13.20;99.90
5689;DHT22;2869;50.432;8.680;2022-10-16T01:40:04;13.20;99.90
5689;DHT22;2869;50.432;8.680;2022-10-16T01:42:35;13.20;99.90
5689;DHT22;2869;50.432;8.680;2022-10-16T01:45:05;13.20;99.90
5689;DHT22;2869;50.432;8.680;2022-10-16T01:47:33;13.10;99.90
5689;DHT22;2869;50.432;8.680;2022-10-16T01:50:02;13.10;99.90
5689;DHT22;2869;50.432;8.680;2022-10-16T01:52:31;13.10;99.90
5689;DHT22;2869;50.432;8.680;2022-10-16T01:55:00;13.10;99.90
5689;DHT22;2869;50.432;8.680;2022-10-16T01:57:28;13.10;99.90
5689;DHT22;2869;50.432;8.680;2022-10-16T02:00:03;13.10;99.90
5689;DHT22;2869;50.432;8.680;2022-10-16T02:02:30;13.10;99.90
5689;DHT22;2869;50.432;8.680;2022-10-16T02:05:01;13.00;99.90
5689;DHT22;2869;50.432;8.680;2022-10-16T02:07:30;13.00;99.90
5689;DHT22;2869;50.432;8.680;2022-10-16T02:09:56;13.00;99.90
5689;DHT22;2869;50.432;8.680;2022-10-16T02:12:26;13.00;99.90
5689;DHT22;2869;50.432;8.680;2022-10-16T02:14:54;13.00;99.90
5689;DHT22;2869;50.432;8.680;2022-10-16T02:17:22;13.00;99.90
5689;DHT22;2869;50.432;8.680;2022-10-16T02:19:51;13.00;99.90
5689;DHT22;2869;50.432;8.680;2022-10-16T02:22:22;12.90;99.90
5689;DHT22;2869;50.432;8.680;2022-10-16T02:24:54;12.90;99.90
5689;DHT22;2869;50.432;8.680;2022-10-16T02:27:26;12.90;99.90
5689;DHT22;2869;50.432;8.680;2022-10-16T02:29:56;12.90;99.90
5689;DHT22;2869;50.432;8.680;2022-10-16T02:32:30;12.90;99.90
5689;DHT22;2869;50.432;8.680;2022-10-16T02:34:58;12.90;99.90
5689;DHT22;2869;50.432;8.680;2022-10-16T02:37:26;12.90;99.90
5689;DHT22;2869;50.432;8.680;2022-10-16T02:39:54;12.90;99.90
5689;DHT22;2869;50.432;8.680;2022-10-16T02:42:27;12.90;99.90
5689;DHT22;2869;50.432;8.680;2022-10-16T02:44:54;12.90;99.90
5689;DHT22;2869;50.432;8.680;2022-10-16T02:47:21;12.90;99.90
5689;DHT22;2869;50.432;8.680;2022-10-16T02:49:49;12.90;99.90
5689;DHT22;2869;50.432;8.680;2022-10-16T02:52:16;12.90;99.90
5689;DHT22;2869;50.432;8.680;2022-10-16T02:54:42;12.90;99.90
5689;DHT22;2869;50.432;8.680;2022-10-16T02:57:09;13.00;99.90
5689;DHT22;2869;50.432;8.680;2022-10-16T02:59:36;13.00;99.90
5689;DHT22;2869;50.432;8.680;2022-10-16T03:02:03;13.00;99.90
5689;DHT22;2869;50.432;8.680;2022-10-16T03:04:29;13.00;99.90
5689;DHT22;2869;50.432;8.680;2022-10-16T03:06:57;13.00;99.90
5689;DHT22;2869;50.432;8.680;2022-10-16T03:09:24;13.00;99.90
5689;DHT22;2869;50.432;8.680;2022-10-16T03:11:50;13.00;99.90
5689;DHT22;2869;50.432;8.680;2022-10-16T03:14:17;13.00;99.90
5689;DHT22;2869;50.432;8.680;2022-10-16T03:16:44;13.10;99.90
5689;DHT22;2869;50.432;8.680;2022-10-16T03:19:10;13.10;99.90
5689;DHT22;2869;50.432;8.680;2022-10-16T03:21:37;13.10;99.90
5689;DHT22;2869;50.432;8.680;2022-10-16T03:24:05;13.20;99.90
5689;DHT22;2869;50.432;8.680;2022-10-16T03:26:32;13.20;99.90
5689;DHT22;2869;50.432;8.680;2022-10-16T03:28:59;13.20;99.90
5689;DHT22;2869;50.432;8.680;2022-10-16T03:31:25;13.20;99.90
5689;DHT22;2869;50.432;8.680;2022-10-16T03:33:52;13.20;99.90
5689;DHT22;2869;50.432;8.680;2022-10-16T03:36:19;13.20;99.90
5689;DHT22;2869;50.432;8.680;2022-10-16T03:38:45;13.20;99.90
5689;DHT22;2869;50.432;8.680;2022-10-16T03:41:13;13.20;99.90
5689;DHT22;2869;50.432;8.680;2022-10-16T03:43:40;13.20;99.90
5689;DHT22;2869;50.432;8.680;2022-10-16T03:46:06;13.20;99.90
5689;DHT22;2869;50.432;8.680;2022-10-16T03:48:33;13.20;99.90
5689;DHT22;2869;50.432;8.680;2022-10-16T03:51:00;13.10;99.90
5689;DHT22;2869;50.432;8.680;2022-10-16T03:53:26;13.10;99.90
5689;DHT22;2869;50.432;8.680;2022-10-16T03:55:53;13.10;99.90
5689;DHT22;2869;50.432;8.680;2022-10-16T03:58:21;13.20;99.90
5689;DHT22;2869;50.432;8.680;2022-10-16T04:00:48;13.10;99.90
5689;DHT22;2869;50.432;8.680;2022-10-16T04:03:15;13.10;99.90
5689;DHT22;2869;50.432;8.680;2022-10-16T04:05:42;13.10;99.90
5689;DHT22;2869;50.432;8.680;2022-10-16T04:08:09;13.20;99.90
5689;DHT22;2869;50.432;8.680;2022-10-16T04:10:36;13.20;99.90
5689;DHT22;2869;50.432;8.680;2022-10-16T04:13:02;13.10;99.90
5689;DHT22;2869;50.432;8.680;2022-10-16T04:15:30;13.20;99.90
5689;DHT22;2869;50.432;8.680;2022-10-16T04:17:57;13.10;99.90
5689;DHT22;2869;50.432;8.680;2022-10-16T04:20:24;13.10;99.90
5689;DHT22;2869;50.432;8.680;2022-10-16T04:22:50;13.10;99.90
5689;DHT22;2869;50.432;8.680;2022-10-16T04:25:17;13.10;99.90
5689;DHT22;2869;50.432;8.680;2022-10-16T04:27:44;13.20;99.90
5689;DHT22;2869;50.432;8.680;2022-10-16T04:30:11;13.20;99.90
5689;DHT22;2869;50.432;8.680;2022-10-16T04:32:39;13.20;99.90
5689;DHT22;2869;50.432;8.680;2022-10-16T04:35:07;13.20;99.90
5689;DHT22;2869;50.432;8.680;2022-10-16T04:37:34;13.20;99.90
5689;DHT22;2869;50.432;8.680;2022-10-16T04:40:00;13.20;99.90
5689;DHT22;2869;50.432;8.680;2022-10-16T04:42:27;13.20;99.90
5689;DHT22;2869;50.432;8.680;2022-10-16T04:44:54;13.20;99.90
5689;DHT22;2869;50.432;8.680;2022-10-16T04:47:20;13.20;99.90
5689;DHT22;2869;50.432;8.680;2022-10-16T04:49:48;13.20;99.90
5689;DHT22;2869;50.432;8.680;2022-10-16T04:52:15;13.20;99.90
5689;DHT22;2869;50.432;8.680;2022-10-16T04:54:42;13.20;99.90
5689;DHT22;2869;50.432;8.680;2022-10-16T04:57:10;13.20;99.90
5689;DHT22;2869;50.432;8.680;2022-10-16T04:59:37;13.20;99.90
5689;DHT22;2869;50.432;8.680;2022-10-16T05:02:03;13.20;99.90
5689;DHT22;2869;50.432;8.680;2022-10-16T05:04:30;13.20;99.90
5689;DHT22;2869;50.432;8.680;2022-10-16T05:06:58;13.20;99.90
5689;DHT22;2869;50.432;8.680;2022-10-16T05:09:25;13.20;99.90
5689;DHT22;2869;50.432;8.680;2022-10-16T05:11:51;13.20;99.90
5689;DHT22;2869;50.432;8.680;2022-10-16T05:14:18;13.30;99.90
5689;DHT22;2869;50.432;8.680;2022-10-16T05:16:45;13.30;99.90
5689;DHT22;2869;50.432;8.680;2022-10-16T05:19:13;13.30;99.90
5689;DHT22;2869;50.432;8.680;2022-10-16T05:21:40;13.30;99.90
5689;DHT22;2869;50.432;8.680;2022-10-16T05:24:08;13.30;99.90
5689;DHT22;2869;50.432;8.680;2022-10-16T05:26:34;13.20;99.90
5689;DHT22;2869;50.432;8.680;2022-10-16T05:29:01;13.20;99.90
5689;DHT22;2869;50.432;8.680;2022-10-16T05:31:28;13.20;99.90
5689;DHT22;2869;50.432;8.680;2022-10-16T05:33:58;13.20;99.90
5689;DHT22;2869;50.432;8.680;2022-10-16T05:36:26;13.20;99.90
5689;DHT22;2869;50.432;8.680;2022-10-16T05:38:52;13.20;99.90
5689;DHT22;2869;50.432;8.680;2022-10-16T05:41:20;13.20;99.90
5689;DHT22;2869;50.432;8.680;2022-10-16T05:43:49;13.20;99.90
5689;DHT22;2869;50.432;8.680;2022-10-16T05:46:16;13.20;99.90
5689;DHT22;2869;50.432;8.680;2022-10-16T05:48:42;13.30;99.90
5689;DHT22;2869;50.432;8.680;2022-10-16T05:51:11;13.30;99.90
5689;DHT22;2869;50.432;8.680;2022-10-16T05:53:39;13.20;99.90
5689;DHT22;2869;50.432;8.680;2022-10-16T05:56:08;13.20;99.90
5689;DHT22;2869;50.432;8.680;2022-10-16T05:58:37;13.20;99.90
5689;DHT22;2869;50.432;8.680;2022-10-16T06:01:07;13.30;99.90
5689;DHT22;2869;50.432;8.680;2022-10-16T06:03:34;13.30;99.90
5689;DHT22;2869;50.432;8.680;2022-10-16T06:06:07;13.30;99.90
5689;DHT22;2869;50.432;8.680;2022-10-16T06:08:34;13.30;99.90
5689;DHT22;2869;50.432;8.680;2022-10-16T06:11:02;13.30;99.90
5689;DHT22;2869;50.432;8.680;2022-10-16T06:13:29;13.30;99.90
5689;DHT22;2869;50.432;8.680;2022-10-16T06:15:58;13.30;99.90
5689;DHT22;2869;50.432;8.680;2022-10-16T06:18:26;13.30;99.90
5689;DHT22;2869;50.432;8.680;2022-10-16T06:20:52;13.30;99.90
5689;DHT22;2869;50.432;8.680;2022-10-16T06:23:19;13.30;99.90
5689;DHT22;2869;50.432;8.680;2022-10-16T06:25:46;13.30;99.90
5689;DHT22;2869;50.432;8.680;2022-10-16T06:28:13;13.40;99.90
5689;DHT22;2869;50.432;8.680;2022-10-16T06:30:40;13.40;99.90
5689;DHT22;2869;50.432;8.680;2022-10-16T06:33:10;13.40;99.90
5689;DHT22;2869;50.432;8.680;2022-10-16T06:35:37;13.40;99.90
5689;DHT22;2869;50.432;8.680;2022-10-16T06:38:04;13.40;99.90
5689;DHT22;2869;50.432;8.680;2022-10-16T06:40:30;13.50;99.90
5689;DHT22;2869;50.432;8.680;2022-10-16T06:42:57;13.50;99.90
5689;DHT22;2869;50.432;8.680;2022-10-16T06:45:24;13.60;99.90
5689;DHT22;2869;50.432;8.680;2022-10-16T06:47:50;13.60;99.90
5689;DHT22;2869;50.432;8.680;2022-10-16T06:50:18;13.70;99.90
5689;DHT22;2869;50.432;8.680;2022-10-16T06:52:45;13.70;99.90
5689;DHT22;2869;50.432;8.680;2022-10-16T06:55:12;13.80;99.90
5689;DHT22;2869;50.432;8.680;2022-10-16T06:57:38;13.80;99.90
5689;DHT22;2869;50.432;8.680;2022-10-16T07:00:06;13.80;99.90
5689;DHT22;2869;50.432;8.680;2022-10-16T07:02:33;13.80;99.90
5689;DHT22;2869;50.432;8.680;2022-10-16T07:04:59;13.80;99.90
5689;DHT22;2869;50.432;8.680;2022-10-16T07:07:27;13.80;99.90
5689;DHT22;2869;50.432;8.680;2022-10-16T07:09:54;13.90;99.90
5689;DHT22;2869;50.432;8.680;2022-10-16T07:12:21;13.90;99.90
5689;DHT22;2869;50.432;8.680;2022-10-16T07:14:47;14.00;99.90
5689;DHT22;2869;50.432;8.680;2022-10-16T07:17:17;14.00;99.90
5689;DHT22;2869;50.432;8.680;2022-10-16T07:19:44;14.00;99.90
5689;DHT22;2869;50.432;8.680;2022-10-16T07:22:11;14.10;99.90
5689;DHT22;2869;50.432;8.680;2022-10-16T07:24:39;14.00;99.90
5689;DHT22;2869;50.432;8.680;2022-10-16T07:27:06;14.10;99.90
5689;DHT22;2869;50.432;8.680;2022-10-16T07:29:32;14.10;99.90
5689;DHT22;2869;50.432;8.680;2022-10-16T07:31:59;14.10;99.90
5689;DHT22;2869;50.432;8.680;2022-10-16T07:34:26;14.20;99.90
5689;DHT22;2869;50.432;8.680;2022-10-16T07:36:52;14.20;99.90
5689;DHT22;2869;50.432;8.680;2022-10-16T07:39:19;14.20;99.90
5689;DHT22;2869;50.432;8.680;2022-10-16T07:41:47;14.20;99.90
5689;DHT22;2869;50.432;8.680;2022-10-16T07:44:15;14.30;99.90
5689;DHT22;2869;50.432;8.680;2022-10-16T07:46:42;14.30;99.90
5689;DHT22;2869;50.432;8.680;2022-10-16T07:49:08;14.30;99.90
5689;DHT22;2869;50.432;8.680;2022-10-16T07:51:35;14.30;99.90
5689;DHT22;2869;50.432;8.680;2022-10-16T07:54:03;14.30;99.90
5689;DHT22;2869;50.432;8.680;2022-10-16T07:56:31;14.40;99.90
5689;DHT22;2869;50.432;8.680;2022-10-16T07:58:59;14.40;99.90
5689;DHT22;2869;50.432;8.680;2022-10-16T08:01:26;14.40;99.90
5689;DHT22;2869;50.432;8.680;2022-10-16T08:03:53;14.50;99.90
5689;DHT22;2869;50.432;8.680;2022-10-16T08:06:21;14.50;99.90
5689;DHT22;2869;50.432;8.680;2022-10-16T08:08:48;14.60;99.90
5689;DHT22;2869;50.432;8.680;2022-10-16T08:11:15;14.60;99.90
5689;DHT22;2869;50.432;8.680;2022-10-16T08:13:42;14.60;99.90
5689;DHT22;2869;50.432;8.680;2022-10-16T08:16:10;14.60;99.90
5689;DHT22;2869;50.432;8.680;2022-10-16T08:18:37;14.70;99.90
5689;DHT22;2869;50.432;8.680;2022-10-16T08:21:05;14.70;99.90
5689;DHT22;2869;50.432;8.680;2022-10-16T08:23:32;14.80;99.90
5689;DHT22;2869;50.432;8.680;2022-10-16T08:26:03;14.80;99.90
5689;DHT22;2869;50.432;8.680;2022-10-16T08:28:30;14.80;99.90
5689;DHT22;2869;50.432;8.680;2022-10-16T08:31:04;14.90;99.90
5689;DHT22;2869;50.432;8.680;2022-10-16T08:33:32;14.90;99.90
5689;DHT22;2869;50.432;8.680;2022-10-16T08:36:00;15.00;99.90
5689;DHT22;2869;50.432;8.680;2022-10-16T08:38:27;15.00;99.90
5689;DHT22;2869;50.432;8.680;2022-10-16T08:40:55;15.00;99.90
5689;DHT22;2869;50.432;8.680;2022-10-16T08:43:34;15.10;99.90
5689;DHT22;2869;50.432;8.680;2022-10-16T08:46:15;15.10;99.90
5689;DHT22;2869;50.432;8.680;2022-10-16T08:48:49;15.20;99.90
5689;DHT22;2869;50.432;8.680;2022-10-16T08:51:20;15.20;99.90
5689;DHT22;2869;50.432;8.680;2022-10-16T08:53:51;15.30;99.90
5689;DHT22;2869;50.432;8.680;2022-10-16T08:56:19;15.30;99.90
5689;DHT22;2869;50.432;8.680;2022-10-16T08:58:47;15.30;99.90
5689;DHT22;2869;50.432;8.680;2022-10-16T09:01:15;15.50;99.90
5689;DHT22;2869;50.432;8.680;2022-10-16T09:06:46;16.00;99.90
5689;DHT22;2869;50.432;8.680;2022-10-16T09:09:31;16.60;99.90
5689;DHT22;2869;50.432;8.680;2022-10-16T09:12:08;16.90;99.90
5689;DHT22;2869;50.432;8.680;2022-10-16T09:14:45;17.40;99.90
5689;DHT22;2869;50.432;8.680;2022-10-16T09:17:24;17.70;99.90
5689;DHT22;2869;50.432;8.680;2022-10-16T09:20:03;17.90;99.90
5689;DHT22;2869;50.432;8.680;2022-10-16T09:22:34;17.90;99.90
5689;DHT22;2869;50.432;8.680;2022-10-16T09:25:10;18.10;99.90
5689;DHT22;2869;50.432;8.680;2022-10-16T09:27:37;18.50;99.90
5689;DHT22;2869;50.432;8.680;2022-10-16T09:30:11;18.70;99.90
5689;DHT22;2869;50.432;8.680;2022-10-16T09:32:39;18.90;99.90
5689;DHT22;2869;50.432;8.680;2022-10-16T09:35:11;18.90;99.90
5689;DHT22;2869;50.432;8.680;2022-10-16T09:37:40;18.90;99.90
5689;DHT22;2869;50.432;8.680;2022-10-16T09:40:12;18.80;99.90
5689;DHT22;2869;50.432;8.680;2022-10-16T09:42:39;18.50;99.90
5689;DHT22;2869;50.432;8.680;2022-10-16T09:45:21;18.30;99.90
5689;DHT22;2869;50.432;8.680;2022-10-16T09:47:49;18.10;99.90
5689;DHT22;2869;50.432;8.680;2022-10-16T09:50:23;17.90;99.90
5689;DHT22;2869;50.432;8.680;2022-10-16T09:53:02;17.90;99.90
5689;DHT22;2869;50.432;8.680;2022-10-16T09:55:29;18.10;99.90
5689;DHT22;2869;50.432;8.680;2022-10-16T09:57:56;18.20;99.90
5689;DHT22;2869;50.432;8.680;2022-10-16T10:00:23;18.20;99.90
5689;DHT22;2869;50.432;8.680;2022-10-16T10:02:51;18.30;99.90
5689;DHT22;2869;50.432;8.680;2022-10-16T10:05:22;18.20;99.90
5689;DHT22;2869;50.432;8.680;2022-10-16T10:07:54;18.20;99.90
5689;DHT22;2869;50.432;8.680;2022-10-16T10:10:23;18.00;99.90
5689;DHT22;2869;50.432;8.680;2022-10-16T10:12:50;17.90;99.90
5689;DHT22;2869;50.432;8.680;2022-10-16T10:15:17;17.90;99.90
5689;DHT22;2869;50.432;8.680;2022-10-16T10:17:49;17.90;99.90
5689;DHT22;2869;50.432;8.680;2022-10-16T10:20:24;18.00;99.90
5689;DHT22;2869;50.432;8.680;2022-10-16T10:22:51;18.10;99.90
5689;DHT22;2869;50.432;8.680;2022-10-16T10:25:42;18.10;99.90
5689;DHT22;2869;50.432;8.680;2022-10-16T10:28:30;18.10;99.90
5689;DHT22;2869;50.432;8.680;2022-10-16T10:31:08;18.10;99.90
5689;DHT22;2869;50.432;8.680;2022-10-16T10:33:43;18.20;99.90
5689;DHT22;2869;50.432;8.680;2022-10-16T10:36:20;18.50;99.90
5689;DHT22;2869;50.432;8.680;2022-10-16T10:38:51;18.70;99.90
5689;DHT22;2869;50.432;8.680;2022-10-16T10:41:55;18.70;99.90
5689;DHT22;2869;50.432;8.680;2022-10-16T10:44:35;18.80;99.90
5689;DHT22;2869;50.432;8.680;2022-10-16T10:47:11;18.80;99.90
5689;DHT22;2869;50.432;8.680;2022-10-16T10:49:49;18.90;99.90
5689;DHT22;2869;50.432;8.680;2022-10-16T10:52:34;19.00;99.90
5689;DHT22;2869;50.432;8.680;2022-10-16T10:55:15;19.10;99.90
5689;DHT22;2869;50.432;8.680;2022-10-16T10:57:54;19.10;99.90
5689;DHT22;2869;50.432;8.680;2022-10-16T11:00:29;19.20;99.90
5689;DHT22;2869;50.432;8.680;2022-10-16T11:03:04;19.50;99.90
5689;DHT22;2869;50.432;8.680;2022-10-16T11:05:40;19.80;99.90
5689;DHT22;2869;50.432;8.680;2022-10-16T11:08:13;20.00;99.90
5689;DHT22;2869;50.432;8.680;2022-10-16T11:10:49;20.10;99.90
5689;DHT22;2869;50.432;8.680;2022-10-16T11:13:26;20.20;99.90
5689;DHT22;2869;50.432;8.680;2022-10-16T11:15:57;20.40;99.90
5689;DHT22;2869;50.432;8.680;2022-10-16T11:18:29;20.60;99.90
5689;DHT22;2869;50.432;8.680;2022-10-16T11:21:00;20.70;99.90
5689;DHT22;2869;50.432;8.680;2022-10-16T11:23:34;20.90;99.90
5689;DHT22;2869;50.432;8.680;2022-10-16T11:26:10;21.10;99.90
5689;DHT22;2869;50.432;8.680;2022-10-16T11:28:43;21.40;99.90
5689;DHT22;2869;50.432;8.680;2022-10-16T11:31:15;21.70;99.90
5689;DHT22;2869;50.432;8.680;2022-10-16T11:33:45;21.90;99.90
5689;DHT22;2869;50.432;8.680;2022-10-16T11:36:16;21.80;99.90
5689;DHT22;2869;50.432;8.680;2022-10-16T11:38:50;21.40;99.90
5689;DHT22;2869;50.432;8.680;2022-10-16T11:41:24;21.00;99.90
5689;DHT22;2869;50.432;8.680;2022-10-16T11:44:02;20.70;99.90
5689;DHT22;2869;50.432;8.680;2022-10-16T11:46:32;20.40;99.90
5689;DHT22;2869;50.432;8.680;2022-10-16T11:49:03;20.30;99.90
5689;DHT22;2869;50.432;8.680;2022-10-16T11:51:39;20.30;99.90
5689;DHT22;2869;50.432;8.680;2022-10-16T11:54:16;20.30;99.90
5689;DHT22;2869;50.432;8.680;2022-10-16T11:56:48;20.40;99.90
5689;DHT22;2869;50.432;8.680;2022-10-16T11:59:20;20.40;99.90
5689;DHT22;2869;50.432;8.680;2022-10-16T12:01:53;20.60;99.90
5689;DHT22;2869;50.432;8.680;2022-10-16T12:04:26;20.90;99.90
5689;DHT22;2869;50.432;8.680;2022-10-16T12:07:03;21.20;99.90
5689;DHT22;2869;50.432;8.680;2022-10-16T12:09:35;21.50;99.90
5689;DHT22;2869;50.432;8.680;2022-10-16T12:12:03;21.80;99.90
5689;DHT22;2869;50.432;8.680;2022-10-16T12:14:38;22.00;99.90
5689;DHT22;2869;50.432;8.680;2022-10-16T12:17:23;21.90;99.90
5689;DHT22;2869;50.432;8.680;2022-10-16T12:19:58;21.80;99.90
5689;DHT22;2869;50.432;8.680;2022-10-16T12:22:28;22.00;99.90
5689;DHT22;2869;50.432;8.680;2022-10-16T12:24:57;22.00;99.90
5689;DHT22;2869;50.432;8.680;2022-10-16T12:27:27;22.00;99.90
5689;DHT22;2869;50.432;8.680;2022-10-16T12:29:56;21.80;99.90
5689;DHT22;2869;50.432;8.680;2022-10-16T12:32:29;21.70;99.90
5689;DHT22;2869;50.432;8.680;2022-10-16T12:34:57;21.50;99.90
5689;DHT22;2869;50.432;8.680;2022-10-16T12:37:26;21.50;99.90
5689;DHT22;2869;50.432;8.680;2022-10-16T12:39:56;21.40;99.90
5689;DHT22;2869;50.432;8.680;2022-10-16T12:42:32;21.30;99.90
5689;DHT22;2869;50.432;8.680;2022-10-16T12:45:00;21.20;99.90
5689;DHT22;2869;50.432;8.680;2022-10-16T12:47:46;21.30;99.90
5689;DHT22;2869;50.432;8.680;2022-10-16T12:50:32;21.30;99.90
5689;DHT22;2869;50.432;8.680;2022-10-16T12:53:00;21.10;99.90
5689;DHT22;2869;50.432;8.680;2022-10-16T12:55:35;20.90;99.90
5689;DHT22;2869;50.432;8.680;2022-10-16T12:58:20;20.70;99.90
5689;DHT22;2869;50.432;8.680;2022-10-16T13:00:53;20.20;99.90
5689;DHT22;2869;50.432;8.680;2022-10-16T13:03:40;20.00;99.90
5689;DHT22;2869;50.432;8.680;2022-10-16T13:06:17;19.80;99.90
5689;DHT22;2869;50.432;8.680;2022-10-16T13:08:59;19.60;99.90
5689;DHT22;2869;50.432;8.680;2022-10-16T13:11:39;19.50;99.90
5689;DHT22;2869;50.432;8.680;2022-10-16T13:14:25;19.50;99.90
5689;DHT22;2869;50.432;8.680;2022-10-16T13:17:03;19.50;99.90
5689;DHT22;2869;50.432;8.680;2022-10-16T13:19:36;19.50;99.90
5689;DHT22;2869;50.432;8.680;2022-10-16T13:22:11;19.50;99.90
5689;DHT22;2869;50.432;8.680;2022-10-16T13:24:52;19.50;99.90
5689;DHT22;2869;50.432;8.680;2022-10-16T13:27:30;19.50;99.90
5689;DHT22;2869;50.432;8.680;2022-10-16T13:30:02;19.50;99.90
5689;DHT22;2869;50.432;8.680;2022-10-16T13:32:34;19.50;99.90
5689;DHT22;2869;50.432;8.680;2022-10-16T13:35:01;19.60;99.90
5689;DHT22;2869;50.432;8.680;2022-10-16T13:37:29;19.60;99.90
5689;DHT22;2869;50.432;8.680;2022-10-16T13:40:06;19.60;99.90
5689;DHT22;2869;50.432;8.680;2022-10-16T13:42:39;19.50;99.90
5689;DHT22;2869;50.432;8.680;2022-10-16T13:45:17;19.50;99.90
5689;DHT22;2869;50.432;8.680;2022-10-16T13:47:45;19.50;99.90
5689;DHT22;2869;50.432;8.680;2022-10-16T13:50:13;19.60;99.90
5689;DHT22;2869;50.432;8.680;2022-10-16T13:52:40;19.90;99.90
5689;DHT22;2869;50.432;8.680;2022-10-16T13:55:10;20.00;99.90
5689;DHT22;2869;50.432;8.680;2022-10-16T13:57:39;20.10;99.90
5689;DHT22;2869;50.432;8.680;2022-10-16T14:00:18;20.30;99.90
5689;DHT22;2869;50.432;8.680;2022-10-16T14:02:45;20.60;99.90
5689;DHT22;2869;50.432;8.680;2022-10-16T14:05:16;20.80;99.90
5689;DHT22;2869;50.432;8.680;2022-10-16T14:07:43;20.90;99.90
5689;DHT22;2869;50.432;8.680;2022-10-16T14:10:22;20.90;99.90
5689;DHT22;2869;50.432;8.680;2022-10-16T14:12:56;20.80;99.90
5689;DHT22;2869;50.432;8.680;2022-10-16T14:15:24;20.80;99.90
5689;DHT22;2869;50.432;8.680;2022-10-16T14:17:52;21.10;99.90
5689;DHT22;2869;50.432;8.680;2022-10-16T14:20:23;21.10;99.90
5689;DHT22;2869;50.432;8.680;2022-10-16T14:22:59;21.00;99.90
5689;DHT22;2869;50.432;8.680;2022-10-16T14:25:28;20.70;99.90
5689;DHT22;2869;50.432;8.680;2022-10-16T14:28:02;20.50;99.90
5689;DHT22;2869;50.432;8.680;2022-10-16T14:30:30;20.10;99.90
5689;DHT22;2869;50.432;8.680;2022-10-16T14:32:58;20.00;99.90
5689;DHT22;2869;50.432;8.680;2022-10-16T14:35:28;19.80;99.90
5689;DHT22;2869;50.432;8.680;2022-10-16T14:37:56;19.80;99.90
5689;DHT22;2869;50.432;8.680;2022-10-16T14:40:25;19.70;99.90
5689;DHT22;2869;50.432;8.680;2022-10-16T14:42:53;19.60;99.90
5689;DHT22;2869;50.432;8.680;2022-10-16T14:45:24;19.60;99.90
5689;DHT22;2869;50.432;8.680;2022-10-16T14:47:53;19.40;99.90
5689;DHT22;2869;50.432;8.680;2022-10-16T14:50:20;19.30;99.90
5689;DHT22;2869;50.432;8.680;2022-10-16T14:52:47;19.20;99.90
5689;DHT22;2869;50.432;8.680;2022-10-16T14:55:14;19.20;99.90
5689;DHT22;2869;50.432;8.680;2022-10-16T14:57:43;19.10;99.90
5689;DHT22;2869;50.432;8.680;2022-10-16T15:00:16;19.00;99.90
5689;DHT22;2869;50.432;8.680;2022-10-16T15:02:45;18.90;99.90
5689;DHT22;2869;50.432;8.680;2022-10-16T15:05:15;18.80;99.90
5689;DHT22;2869;50.432;8.680;2022-10-16T15:07:42;18.70;99.90
5689;DHT22;2869;50.432;8.680;2022-10-16T15:10:09;18.70;99.90
5689;DHT22;2869;50.432;8.680;2022-10-16T15:12:36;18.70;99.90
5689;DHT22;2869;50.432;8.680;2022-10-16T15:15:15;18.60;99.90
5689;DHT22;2869;50.432;8.680;2022-10-16T15:17:49;18.70;99.90
5689;DHT22;2869;50.432;8.680;2022-10-16T15:20:17;18.70;99.90
5689;DHT22;2869;50.432;8.680;2022-10-16T15:22:44;18.70;99.90
5689;DHT22;2869;50.432;8.680;2022-10-16T15:25:25;18.80;99.90
5689;DHT22;2869;50.432;8.680;2022-10-16T15:27:53;18.90;99.90
5689;DHT22;2869;50.432;8.680;2022-10-16T15:30:21;18.90;99.90
5689;DHT22;2869;50.432;8.680;2022-10-16T15:32:49;18.70;99.90
5689;DHT22;2869;50.432;8.680;2022-10-16T15:35:15;18.70;99.90
5689;DHT22;2869;50.432;8.680;2022-10-16T15:37:42;18.60;99.90
5689;DHT22;2869;50.432;8.680;2022-10-16T15:40:09;18.50;99.90
5689;DHT22;2869;50.432;8.680;2022-10-16T15:42:36;18.50;99.90
5689;DHT22;2869;50.432;8.680;2022-10-16T15:45:03;18.40;99.90
5689;DHT22;2869;50.432;8.680;2022-10-16T15:47:31;18.30;99.90
5689;DHT22;2869;50.432;8.680;2022-10-16T15:49:59;18.30;99.90
5689;DHT22;2869;50.432;8.680;2022-10-16T15:52:26;18.30;99.90
5689;DHT22;2869;50.432;8.680;2022-10-16T15:54:54;18.20;99.90
5689;DHT22;2869;50.432;8.680;2022-10-16T15:57:21;18.20;99.90
5689;DHT22;2869;50.432;8.680;2022-10-16T15:59:48;18.20;99.90
5689;DHT22;2869;50.432;8.680;2022-10-16T16:02:14;18.10;99.90
5689;DHT22;2869;50.432;8.680;2022-10-16T16:04:41;18.10;99.90
5689;DHT22;2869;50.432;8.680;2022-10-16T16:07:09;18.10;99.90
5689;DHT22;2869;50.432;8.680;2022-10-16T16:09:36;18.10;99.90
5689;DHT22;2869;50.432;8.680;2022-10-16T16:12:03;18.00;99.90
5689;DHT22;2869;50.432;8.680;2022-10-16T16:14:30;18.00;99.90
5689;DHT22;2869;50.432;8.680;2022-10-16T16:16:57;18.00;99.90
5689;DHT22;2869;50.432;8.680;2022-10-16T16:19:24;18.00;99.90
5689;DHT22;2869;50.432;8.680;2022-10-16T16:21:51;18.00;99.90
5689;DHT22;2869;50.432;8.680;2022-10-16T16:24:19;18.00;99.90